DLH93V EDDF-LEAL
Flight info
| Callsign | DLH93V |
|---|---|
| Flight time | N/A |
| Altitude | 35000 |
| Route | ANEKI2L/18 ANEKI Y163 HERBI Y164 MOPAN DCT LUTIX/N0443F370 DCT BENOT DCT NEMOS DCT GVA DCT INCUS DCT BALSI UN852 VATIR N852 PIVUS Z237 OKITI M603 GERVU |
| Aircraft | A321/M-SDE3FGHIRWY/LB1 |
Departure
| Time | 2026-04-16 15:58 |
|---|---|
| Airport | Frankfurt Main Airport (EDDF) |
Arrival
| Time | N/A |
|---|---|
| Airport | Alicante-Elche Miguel Hernández Airport (LEAL) |
| Time | Latitude | Longitude | Altitude | Speed | Heading |
|---|---|---|---|---|---|
| 2026-04-16 15:21 | 50.04756 | 8.56897 | 353 ft | 0 kts | 295° |
| 2026-04-16 15:48 | 50.04750 | 8.56918 | 356 ft | 3 kts | 295° |
| 2026-04-16 15:49 | 50.04742 | 8.56944 | 356 ft | 3 kts | 295° |
| 2026-04-16 15:49 | 50.04735 | 8.56972 | 353 ft | 3 kts | 262° |
| 2026-04-16 15:49 | 50.04741 | 8.56999 | 350 ft | 3 kts | 224° |
| 2026-04-16 15:49 | 50.04757 | 8.57011 | 353 ft | 3 kts | 202° |
| 2026-04-16 15:50 | 50.04761 | 8.57014 | 352 ft | 0 kts | 204° |
| 2026-04-16 15:51 | 50.04756 | 8.57010 | 353 ft | 3 kts | 204° |
| 2026-04-16 15:51 | 50.04717 | 8.56983 | 356 ft | 9 kts | 204° |
| 2026-04-16 15:51 | 50.04647 | 8.56933 | 354 ft | 12 kts | 205° |
| 2026-04-16 15:51 | 50.04623 | 8.56917 | 348 ft | 3 kts | 199° |
| 2026-04-16 15:52 | 50.04583 | 8.56899 | 352 ft | 9 kts | 195° |
| 2026-04-16 15:52 | 50.04532 | 8.56878 | 346 ft | 13 kts | 194° |
| 2026-04-16 15:52 | 50.04443 | 8.56788 | 355 ft | 18 kts | 238° |
| 2026-04-16 15:52 | 50.04397 | 8.56595 | 355 ft | 20 kts | 250° |
| 2026-04-16 15:53 | 50.04349 | 8.56389 | 346 ft | 21 kts | 250° |
| 2026-04-16 15:53 | 50.04295 | 8.56172 | 352 ft | 22 kts | 248° |
| 2026-04-16 15:53 | 50.04240 | 8.55945 | 352 ft | 23 kts | 250° |
| 2026-04-16 15:53 | 50.04185 | 8.55708 | 350 ft | 24 kts | 249° |
| 2026-04-16 15:54 | 50.04127 | 8.55464 | 347 ft | 24 kts | 250° |
| 2026-04-16 15:54 | 50.04068 | 8.55211 | 349 ft | 25 kts | 249° |
| 2026-04-16 15:54 | 50.04005 | 8.54952 | 351 ft | 26 kts | 250° |
| 2026-04-16 15:54 | 50.03940 | 8.54686 | 347 ft | 27 kts | 249° |
| 2026-04-16 15:55 | 50.03874 | 8.54415 | 351 ft | 27 kts | 245° |
| 2026-04-16 15:55 | 50.03786 | 8.54164 | 349 ft | 24 kts | 248° |
| 2026-04-16 15:55 | 50.03733 | 8.53938 | 350 ft | 20 kts | 251° |
| 2026-04-16 15:55 | 50.03682 | 8.53727 | 351 ft | 21 kts | 249° |
| 2026-04-16 15:56 | 50.03626 | 8.53509 | 349 ft | 22 kts | 248° |
| 2026-04-16 15:56 | 50.03570 | 8.53281 | 353 ft | 24 kts | 250° |
| 2026-04-16 15:56 | 50.03508 | 8.53024 | 351 ft | 19 kts | 249° |
| 2026-04-16 15:56 | 50.03466 | 8.52854 | 353 ft | 21 kts | 249° |
| 2026-04-16 15:57 | 50.03388 | 8.52628 | 351 ft | 25 kts | 217° |
| 2026-04-16 15:57 | 50.03240 | 8.52593 | 346 ft | 34 kts | 180° |
| 2026-04-16 15:57 | 50.02737 | 8.52599 | 346 ft | 108 kts | 180° |
| 2026-04-16 15:57 | 50.01776 | 8.52607 | 347 ft | 165 kts | 179° |
| 2026-04-16 15:58 | 50.00542 | 8.52619 | 771 ft | 179 kts | 179° |
| 2026-04-16 15:58 | 49.99324 | 8.52676 | 1687 ft | 172 kts | 179° |
| 2026-04-16 15:58 | 49.98150 | 8.52764 | 2497 ft | 168 kts | 179° |
| 2026-04-16 15:58 | 49.96945 | 8.52853 | 2904 ft | 183 kts | 179° |
| 2026-04-16 15:59 | 49.94096 | 8.53054 | 3424 ft | 225 kts | 179° |
| 2026-04-16 15:59 | 49.92501 | 8.53165 | 4009 ft | 231 kts | 179° |
| 2026-04-16 15:59 | 49.90881 | 8.53279 | 4783 ft | 234 kts | 179° |
| 2026-04-16 16:00 | 49.89243 | 8.53393 | 5549 ft | 238 kts | 179° |
| 2026-04-16 16:00 | 49.87581 | 8.53510 | 6314 ft | 240 kts | 180° |
| 2026-04-16 16:00 | 49.85902 | 8.53627 | 7067 ft | 243 kts | 180° |
| 2026-04-16 16:00 | 49.84205 | 8.53742 | 7792 ft | 245 kts | 180° |
| 2026-04-16 16:01 | 49.82495 | 8.53857 | 8542 ft | 247 kts | 180° |
| 2026-04-16 16:01 | 49.80769 | 8.53973 | 9293 ft | 249 kts | 180° |
| 2026-04-16 16:01 | 49.79032 | 8.54088 | 10047 ft | 251 kts | 180° |
| 2026-04-16 16:01 | 49.77274 | 8.54040 | 10612 ft | 259 kts | 187° |
| 2026-04-16 16:02 | 49.75398 | 8.53791 | 10815 ft | 282 kts | 187° |
| 2026-04-16 16:02 | 49.73359 | 8.53511 | 10982 ft | 305 kts | 187° |
| 2026-04-16 16:02 | 49.71163 | 8.53211 | 11128 ft | 327 kts | 187° |
| 2026-04-16 16:02 | 49.68888 | 8.52904 | 11556 ft | 337 kts | 187° |
| 2026-04-16 16:03 | 49.66506 | 8.52589 | 12153 ft | 342 kts | 187° |
| 2026-04-16 16:03 | 49.64151 | 8.52282 | 12731 ft | 347 kts | 187° |
| 2026-04-16 16:03 | 49.61727 | 8.51967 | 13324 ft | 352 kts | 188° |
| 2026-04-16 16:03 | 49.59278 | 8.51651 | 13932 ft | 356 kts | 188° |
| 2026-04-16 16:04 | 49.56794 | 8.51323 | 14477 ft | 360 kts | 188° |
| 2026-04-16 16:04 | 49.54286 | 8.50988 | 15025 ft | 363 kts | 188° |
| 2026-04-16 16:04 | 49.51755 | 8.50652 | 15587 ft | 367 kts | 188° |
| 2026-04-16 16:04 | 49.49201 | 8.50315 | 16165 ft | 370 kts | 188° |
| 2026-04-16 16:05 | 49.46627 | 8.49978 | 16714 ft | 373 kts | 188° |
| 2026-04-16 16:05 | 49.44026 | 8.49639 | 17257 ft | 377 kts | 188° |
| 2026-04-16 16:05 | 49.41407 | 8.49295 | 17803 ft | 379 kts | 188° |
| 2026-04-16 16:05 | 49.38766 | 8.48951 | 18355 ft | 382 kts | 188° |
| 2026-04-16 16:06 | 49.36110 | 8.48605 | 18829 ft | 385 kts | 188° |
| 2026-04-16 16:06 | 49.33428 | 8.48253 | 19288 ft | 388 kts | 188° |
| 2026-04-16 16:06 | 49.30736 | 8.47901 | 19744 ft | 391 kts | 188° |
| 2026-04-16 16:06 | 49.28017 | 8.47550 | 20198 ft | 393 kts | 188° |
| 2026-04-16 16:07 | 49.25278 | 8.47196 | 20649 ft | 396 kts | 188° |
| 2026-04-16 16:07 | 49.22521 | 8.46838 | 21092 ft | 399 kts | 188° |
| 2026-04-16 16:07 | 49.19750 | 8.46478 | 21505 ft | 402 kts | 188° |
| 2026-04-16 16:07 | 49.16954 | 8.46113 | 21933 ft | 405 kts | 188° |
| 2026-04-16 16:08 | 49.14139 | 8.45746 | 22362 ft | 407 kts | 188° |
| 2026-04-16 16:08 | 49.11303 | 8.45378 | 22785 ft | 410 kts | 188° |
| 2026-04-16 16:08 | 49.08447 | 8.45008 | 23193 ft | 413 kts | 188° |
| 2026-04-16 16:08 | 49.05597 | 8.44477 | 23588 ft | 412 kts | 195° |
| 2026-04-16 16:09 | 49.02792 | 8.43522 | 23959 ft | 414 kts | 197° |
| 2026-04-16 16:09 | 48.99974 | 8.42542 | 24310 ft | 417 kts | 197° |
| 2026-04-16 16:09 | 48.97141 | 8.41556 | 24670 ft | 418 kts | 197° |
| 2026-04-16 16:09 | 48.94302 | 8.40563 | 25038 ft | 420 kts | 197° |
| 2026-04-16 16:10 | 48.91445 | 8.39562 | 25393 ft | 423 kts | 197° |
| 2026-04-16 16:10 | 48.88570 | 8.38558 | 25746 ft | 425 kts | 197° |
| 2026-04-16 16:10 | 48.85673 | 8.37550 | 26092 ft | 427 kts | 197° |
| 2026-04-16 16:10 | 48.82769 | 8.36545 | 26429 ft | 430 kts | 197° |
| 2026-04-16 16:11 | 48.79883 | 8.35548 | 26762 ft | 432 kts | 197° |
| 2026-04-16 16:11 | 48.76905 | 8.34515 | 27089 ft | 434 kts | 197° |
| 2026-04-16 16:11 | 48.73996 | 8.33472 | 27410 ft | 436 kts | 198° |
| 2026-04-16 16:11 | 48.71038 | 8.32387 | 27736 ft | 439 kts | 198° |
| 2026-04-16 16:12 | 48.68066 | 8.31284 | 28041 ft | 441 kts | 198° |
| 2026-04-16 16:12 | 48.65076 | 8.30173 | 28367 ft | 444 kts | 198° |
| 2026-04-16 16:12 | 48.62071 | 8.29066 | 28701 ft | 446 kts | 198° |
| 2026-04-16 16:12 | 48.59046 | 8.27961 | 29031 ft | 448 kts | 198° |
| 2026-04-16 16:13 | 48.56008 | 8.26860 | 29339 ft | 451 kts | 198° |
| 2026-04-16 16:13 | 48.52953 | 8.25755 | 29639 ft | 453 kts | 198° |
| 2026-04-16 16:13 | 48.49875 | 8.24644 | 29937 ft | 455 kts | 198° |
| 2026-04-16 16:13 | 48.46792 | 8.23528 | 30241 ft | 458 kts | 198° |
| 2026-04-16 16:14 | 48.43687 | 8.22399 | 30492 ft | 460 kts | 198° |
| 2026-04-16 16:14 | 48.40573 | 8.21260 | 30714 ft | 462 kts | 198° |
| 2026-04-16 16:14 | 48.37439 | 8.20108 | 30918 ft | 465 kts | 198° |
| 2026-04-16 16:14 | 48.34290 | 8.18951 | 31099 ft | 467 kts | 198° |
| 2026-04-16 16:15 | 48.31124 | 8.17791 | 31290 ft | 470 kts | 198° |
| 2026-04-16 16:15 | 48.27941 | 8.16633 | 31477 ft | 472 kts | 198° |
| 2026-04-16 16:15 | 48.24782 | 8.15297 | 31685 ft | 469 kts | 205° |
| 2026-04-16 16:15 | 48.21809 | 8.13360 | 31951 ft | 464 kts | 212° |
| 2026-04-16 16:16 | 48.18915 | 8.11208 | 32211 ft | 465 kts | 212° |
| 2026-04-16 16:16 | 48.16019 | 8.09061 | 32495 ft | 465 kts | 212° |
| 2026-04-16 16:16 | 48.13115 | 8.06917 | 32735 ft | 466 kts | 212° |
| 2026-04-16 16:16 | 48.10204 | 8.04770 | 32967 ft | 467 kts | 212° |
| 2026-04-16 16:17 | 48.07289 | 8.02625 | 33225 ft | 467 kts | 212° |
| 2026-04-16 16:17 | 48.04364 | 8.00479 | 33486 ft | 468 kts | 212° |
| 2026-04-16 16:17 | 48.01448 | 7.98339 | 33747 ft | 468 kts | 212° |
| 2026-04-16 16:17 | 47.98519 | 7.96192 | 34000 ft | 468 kts | 212° |
| 2026-04-16 16:18 | 47.95599 | 7.94052 | 34231 ft | 469 kts | 212° |
| 2026-04-16 16:18 | 47.92669 | 7.91902 | 34420 ft | 469 kts | 212° |
| 2026-04-16 16:18 | 47.89745 | 7.89754 | 34614 ft | 469 kts | 212° |
| 2026-04-16 16:18 | 47.86812 | 7.87604 | 34851 ft | 469 kts | 212° |
| 2026-04-16 16:19 | 47.83887 | 7.85468 | 35110 ft | 468 kts | 212° |
| 2026-04-16 16:19 | 47.80967 | 7.83343 | 35197 ft | 466 kts | 212° |
| 2026-04-16 16:19 | 47.75199 | 7.79162 | 35224 ft | 459 kts | 212° |
| 2026-04-16 16:20 | 47.69459 | 7.75004 | 35219 ft | 459 kts | 211° |
| 2026-04-16 16:20 | 47.63725 | 7.70853 | 35220 ft | 459 kts | 211° |
| 2026-04-16 16:21 | 47.57982 | 7.66704 | 35220 ft | 459 kts | 211° |
| 2026-04-16 16:21 | 47.52277 | 7.62596 | 35206 ft | 459 kts | 211° |
| 2026-04-16 16:22 | 47.46523 | 7.58463 | 35215 ft | 460 kts | 211° |
| 2026-04-16 16:22 | 47.40760 | 7.54334 | 35223 ft | 461 kts | 211° |
| 2026-04-16 16:23 | 47.34990 | 7.50206 | 35231 ft | 461 kts | 211° |
| 2026-04-16 16:23 | 47.29215 | 7.46083 | 35227 ft | 461 kts | 211° |
| 2026-04-16 16:24 | 47.23443 | 7.41981 | 35240 ft | 461 kts | 211° |
| 2026-04-16 16:24 | 47.17831 | 7.37567 | 35242 ft | 453 kts | 221° |
| 2026-04-16 16:25 | 47.13362 | 7.31287 | 35233 ft | 440 kts | 237° |
| 2026-04-16 16:25 | 47.09554 | 7.24244 | 35237 ft | 441 kts | 237° |
| 2026-04-16 16:26 | 47.05729 | 7.17212 | 35248 ft | 441 kts | 237° |
| 2026-04-16 16:26 | 47.01905 | 7.10191 | 35240 ft | 441 kts | 237° |
| 2026-04-16 16:27 | 46.98093 | 7.03221 | 35242 ft | 441 kts | 237° |
| 2026-04-16 16:27 | 46.94229 | 6.96176 | 35223 ft | 441 kts | 236° |
| 2026-04-16 16:28 | 46.90170 | 6.89433 | 35240 ft | 446 kts | 226° |
| 2026-04-16 16:28 | 46.85393 | 6.83708 | 35244 ft | 447 kts | 224° |
| 2026-04-16 16:29 | 46.80566 | 6.77981 | 35244 ft | 447 kts | 224° |
| 2026-04-16 16:29 | 46.75741 | 6.72257 | 35232 ft | 447 kts | 224° |
| 2026-04-16 16:30 | 46.70925 | 6.66539 | 35222 ft | 448 kts | 224° |
| 2026-04-16 16:30 | 46.66084 | 6.60813 | 35226 ft | 448 kts | 224° |
| 2026-04-16 16:31 | 46.61234 | 6.55090 | 35226 ft | 449 kts | 224° |
| 2026-04-16 16:31 | 46.56381 | 6.49391 | 35228 ft | 449 kts | 223° |
| 2026-04-16 16:32 | 46.51520 | 6.43691 | 35232 ft | 448 kts | 224° |
| 2026-04-16 16:32 | 46.46674 | 6.38006 | 35239 ft | 447 kts | 224° |
| 2026-04-16 16:33 | 46.41834 | 6.32333 | 35236 ft | 447 kts | 223° |
| 2026-04-16 16:33 | 46.36993 | 6.26690 | 35227 ft | 447 kts | 223° |
| 2026-04-16 16:34 | 46.32140 | 6.21056 | 35231 ft | 447 kts | 223° |
| 2026-04-16 16:34 | 46.27171 | 6.15636 | 35234 ft | 452 kts | 214° |
| 2026-04-16 16:35 | 46.21282 | 6.12322 | 35233 ft | 461 kts | 194° |
| 2026-04-16 16:35 | 46.14960 | 6.10902 | 35229 ft | 463 kts | 192° |
| 2026-04-16 16:36 | 46.08589 | 6.09492 | 35228 ft | 463 kts | 192° |
| 2026-04-16 16:36 | 46.02213 | 6.08072 | 35209 ft | 463 kts | 192° |
| 2026-04-16 16:37 | 45.95837 | 6.06663 | 35202 ft | 464 kts | 191° |
| 2026-04-16 16:37 | 45.89467 | 6.05260 | 35204 ft | 464 kts | 191° |
| 2026-04-16 16:38 | 45.83082 | 6.03847 | 35205 ft | 464 kts | 191° |
| 2026-04-16 16:38 | 45.76707 | 6.02436 | 35199 ft | 464 kts | 191° |
| 2026-04-16 16:39 | 45.70324 | 6.01034 | 35198 ft | 464 kts | 191° |
| 2026-04-16 16:39 | 45.63947 | 5.99626 | 35176 ft | 464 kts | 191° |
| 2026-04-16 16:40 | 45.58648 | 5.98455 | 35176 ft | 464 kts | 191° |
| 2026-04-16 16:40 | 45.52266 | 5.97052 | 35180 ft | 464 kts | 191° |
| 2026-04-16 16:41 | 45.45894 | 5.95616 | 35184 ft | 463 kts | 193° |
| 2026-04-16 16:41 | 45.39592 | 5.93736 | 35174 ft | 462 kts | 195° |
| 2026-04-16 16:42 | 45.33340 | 5.91621 | 35184 ft | 462 kts | 196° |
| 2026-04-16 16:42 | 45.27067 | 5.89580 | 35197 ft | 463 kts | 195° |
| 2026-04-16 16:43 | 45.20773 | 5.87638 | 35187 ft | 463 kts | 194° |
| 2026-04-16 16:43 | 45.14472 | 5.85717 | 35197 ft | 463 kts | 194° |
| 2026-04-16 16:44 | 45.08178 | 5.83779 | 35198 ft | 463 kts | 195° |
| 2026-04-16 16:44 | 45.01881 | 5.81824 | 35190 ft | 463 kts | 194° |
| 2026-04-16 16:45 | 44.95590 | 5.79877 | 35177 ft | 463 kts | 194° |
| 2026-04-16 16:45 | 44.89291 | 5.77951 | 35178 ft | 463 kts | 194° |
| 2026-04-16 16:46 | 44.82992 | 5.76023 | 35159 ft | 463 kts | 194° |
| 2026-04-16 16:46 | 44.76690 | 5.74091 | 35166 ft | 463 kts | 194° |
| 2026-04-16 16:47 | 44.70406 | 5.72161 | 35176 ft | 463 kts | 194° |
| 2026-04-16 16:47 | 44.64116 | 5.70252 | 35152 ft | 462 kts | 194° |
| 2026-04-16 16:48 | 44.57826 | 5.68350 | 35154 ft | 462 kts | 194° |
| 2026-04-16 16:48 | 44.51547 | 5.66450 | 35147 ft | 462 kts | 194° |
| 2026-04-16 16:49 | 44.45270 | 5.64550 | 35131 ft | 461 kts | 194° |
| 2026-04-16 16:49 | 44.38991 | 5.62634 | 35134 ft | 461 kts | 197° |
| 2026-04-16 16:50 | 44.32990 | 5.59618 | 35135 ft | 458 kts | 204° |
| 2026-04-16 16:50 | 44.27054 | 5.56357 | 35127 ft | 459 kts | 204° |
| 2026-04-16 16:51 | 44.21114 | 5.53098 | 35117 ft | 459 kts | 204° |
| 2026-04-16 16:51 | 44.15167 | 5.49856 | 35114 ft | 459 kts | 204° |
| 2026-04-16 16:52 | 44.09221 | 5.46613 | 35111 ft | 459 kts | 203° |
| 2026-04-16 16:52 | 44.03262 | 5.43369 | 35113 ft | 460 kts | 203° |
| 2026-04-16 16:53 | 43.97300 | 5.40150 | 35112 ft | 460 kts | 203° |
| 2026-04-16 16:53 | 43.91338 | 5.36928 | 35114 ft | 460 kts | 203° |
| 2026-04-16 16:54 | 43.90328 | 5.36382 | 35115 ft | 460 kts | 203° |
| 2026-04-16 16:54 | 43.84983 | 5.33407 | 35108 ft | 460 kts | 203° |
| 2026-04-16 16:55 | 43.79004 | 5.30210 | 35114 ft | 460 kts | 202° |
| 2026-04-16 16:55 | 43.73023 | 5.27048 | 35123 ft | 460 kts | 203° |
| 2026-04-16 16:56 | 43.67045 | 5.23854 | 35124 ft | 460 kts | 203° |
| 2026-04-16 16:56 | 43.61078 | 5.20654 | 35127 ft | 460 kts | 203° |
| 2026-04-16 16:57 | 43.52120 | 5.15868 | 35128 ft | 460 kts | 203° |
| 2026-04-16 16:58 | 43.46151 | 5.12684 | 35121 ft | 460 kts | 203° |
| 2026-04-16 16:58 | 43.40183 | 5.09488 | 35121 ft | 460 kts | 206° |
| 2026-04-16 16:59 | 43.34734 | 5.05000 | 35122 ft | 456 kts | 217° |
| 2026-04-16 16:59 | 43.29511 | 5.00046 | 35119 ft | 457 kts | 217° |
| 2026-04-16 17:00 | 43.24262 | 4.95121 | 35111 ft | 457 kts | 217° |
| 2026-04-16 17:00 | 43.19005 | 4.90215 | 35127 ft | 457 kts | 217° |
| 2026-04-16 17:01 | 43.13789 | 4.85342 | 35138 ft | 457 kts | 217° |
| 2026-04-16 17:01 | 43.08539 | 4.80423 | 35141 ft | 457 kts | 217° |
| 2026-04-16 17:02 | 43.03143 | 4.75797 | 35138 ft | 459 kts | 211° |
| 2026-04-16 17:02 | 42.97562 | 4.71567 | 35146 ft | 459 kts | 211° |
| 2026-04-16 17:03 | 42.91973 | 4.67344 | 35146 ft | 459 kts | 211° |
| 2026-04-16 17:03 | 42.86379 | 4.63112 | 35144 ft | 459 kts | 211° |
| 2026-04-16 17:04 | 42.80787 | 4.58891 | 35145 ft | 459 kts | 211° |
| 2026-04-16 17:04 | 42.75197 | 4.54679 | 35139 ft | 459 kts | 211° |
| 2026-04-16 17:05 | 42.69612 | 4.50482 | 35144 ft | 458 kts | 211° |
| 2026-04-16 17:05 | 42.64022 | 4.46306 | 35154 ft | 458 kts | 211° |
| 2026-04-16 17:06 | 42.58434 | 4.42138 | 35157 ft | 458 kts | 211° |
| 2026-04-16 17:06 | 42.52857 | 4.37966 | 35149 ft | 458 kts | 211° |
| 2026-04-16 17:07 | 42.47279 | 4.33798 | 35141 ft | 458 kts | 211° |
| 2026-04-16 17:07 | 42.41688 | 4.29639 | 35142 ft | 458 kts | 211° |
| 2026-04-16 17:08 | 42.36138 | 4.25522 | 35152 ft | 458 kts | 211° |
| 2026-04-16 17:08 | 42.30507 | 4.21354 | 35151 ft | 459 kts | 211° |
| 2026-04-16 17:09 | 42.24936 | 4.17246 | 35142 ft | 459 kts | 210° |
| 2026-04-16 17:09 | 42.19331 | 4.13117 | 35160 ft | 459 kts | 211° |
| 2026-04-16 17:10 | 42.13729 | 4.08991 | 35166 ft | 459 kts | 211° |
| 2026-04-16 17:10 | 42.08129 | 4.04881 | 35165 ft | 459 kts | 210° |
| 2026-04-16 17:11 | 42.02478 | 4.00739 | 35204 ft | 466 kts | 210° |
| 2026-04-16 17:11 | 41.99634 | 3.98658 | 35459 ft | 466 kts | 210° |
| 2026-04-16 17:11 | 41.96784 | 3.96576 | 35734 ft | 465 kts | 210° |
| 2026-04-16 17:11 | 41.93944 | 3.94505 | 36015 ft | 465 kts | 210° |
| 2026-04-16 17:12 | 41.91101 | 3.92445 | 36279 ft | 464 kts | 210° |
| 2026-04-16 17:12 | 41.88229 | 3.90444 | 36504 ft | 465 kts | 208° |
| 2026-04-16 17:12 | 41.85342 | 3.88504 | 36740 ft | 465 kts | 208° |
| 2026-04-16 17:12 | 41.82443 | 3.86596 | 36979 ft | 464 kts | 208° |
| 2026-04-16 17:13 | 41.79541 | 3.84698 | 37146 ft | 464 kts | 208° |
| 2026-04-16 17:13 | 41.73749 | 3.80870 | 37155 ft | 463 kts | 208° |
| 2026-04-16 17:14 | 41.67997 | 3.77019 | 37164 ft | 462 kts | 208° |
| 2026-04-16 17:14 | 41.62255 | 3.73160 | 37165 ft | 462 kts | 208° |
| 2026-04-16 17:15 | 41.56546 | 3.69349 | 37163 ft | 462 kts | 208° |
| 2026-04-16 17:15 | 41.50788 | 3.65531 | 37172 ft | 462 kts | 208° |
| 2026-04-16 17:16 | 41.45027 | 3.61707 | 37175 ft | 463 kts | 208° |
| 2026-04-16 17:16 | 41.39261 | 3.57885 | 37180 ft | 463 kts | 208° |
| 2026-04-16 17:17 | 41.33485 | 3.54064 | 37182 ft | 463 kts | 208° |
| 2026-04-16 17:17 | 41.27710 | 3.50253 | 37192 ft | 464 kts | 208° |
| 2026-04-16 17:18 | 41.21928 | 3.46445 | 37192 ft | 464 kts | 208° |
| 2026-04-16 17:18 | 41.16101 | 3.42746 | 37194 ft | 465 kts | 205° |
| 2026-04-16 17:19 | 41.10083 | 3.39570 | 37194 ft | 466 kts | 201° |
| 2026-04-16 17:19 | 41.03987 | 3.36614 | 37194 ft | 466 kts | 201° |
| 2026-04-16 17:20 | 40.97915 | 3.33583 | 37194 ft | 466 kts | 202° |
| 2026-04-16 17:20 | 40.91872 | 3.30454 | 37196 ft | 467 kts | 203° |
| 2026-04-16 17:21 | 40.85832 | 3.27311 | 37198 ft | 467 kts | 202° |
| 2026-04-16 17:21 | 40.79780 | 3.24192 | 37195 ft | 467 kts | 202° |
| 2026-04-16 17:22 | 40.73715 | 3.21096 | 37195 ft | 468 kts | 202° |
| 2026-04-16 17:22 | 40.67640 | 3.18004 | 37197 ft | 468 kts | 202° |
| 2026-04-16 17:23 | 40.61577 | 3.14900 | 37196 ft | 467 kts | 205° |
| 2026-04-16 17:23 | 40.55849 | 3.10924 | 37197 ft | 466 kts | 211° |
| 2026-04-16 17:24 | 40.50161 | 3.06834 | 37197 ft | 466 kts | 210° |
| 2026-04-16 17:24 | 40.45431 | 3.03451 | 37200 ft | 466 kts | 210° |
| 2026-04-16 17:25 | 40.39747 | 2.99384 | 37206 ft | 465 kts | 210° |
| 2026-04-16 17:25 | 40.34074 | 2.95328 | 37202 ft | 464 kts | 210° |
| 2026-04-16 17:26 | 40.28399 | 2.91277 | 37195 ft | 464 kts | 210° |
| 2026-04-16 17:26 | 40.22725 | 2.87237 | 37200 ft | 464 kts | 210° |
| 2026-04-16 17:27 | 40.17052 | 2.83208 | 37188 ft | 464 kts | 210° |
| 2026-04-16 17:27 | 40.11371 | 2.79176 | 37192 ft | 465 kts | 210° |
| 2026-04-16 17:28 | 40.05683 | 2.75155 | 37201 ft | 465 kts | 210° |
| 2026-04-16 17:28 | 39.99990 | 2.71140 | 37195 ft | 465 kts | 210° |
| 2026-04-16 17:29 | 39.94298 | 2.67124 | 37194 ft | 465 kts | 210° |
| 2026-04-16 17:29 | 39.88616 | 2.63116 | 37208 ft | 464 kts | 210° |
| 2026-04-16 17:30 | 39.82940 | 2.59132 | 37204 ft | 463 kts | 210° |